createdAt,value
2022-11-01T00:02:02.489Z,8.73
2022-11-01T00:04:30.595Z,8.90
2022-11-01T00:06:58.770Z,9.37
2022-11-01T00:09:26.872Z,9.70
2022-11-01T00:11:54.893Z,9.43
2022-11-01T00:14:23.301Z,10.17
2022-11-01T00:16:51.653Z,10.00
2022-11-01T00:19:21.181Z,9.47
2022-11-01T00:21:49.277Z,9.63
2022-11-01T00:24:17.348Z,9.57
2022-11-01T00:26:45.437Z,9.83
2022-11-01T00:29:14.303Z,9.53
2022-11-01T00:31:42.466Z,9.23
2022-11-01T00:34:10.544Z,8.50
2022-11-01T00:36:39.970Z,9.47
2022-11-01T00:39:08.263Z,9.17
2022-11-01T00:41:36.430Z,9.00
2022-11-01T00:44:05.142Z,9.00
2022-11-01T00:46:33.194Z,8.30
2022-11-01T00:49:01.216Z,8.30
2022-11-01T00:51:29.479Z,8.63
2022-11-01T00:53:59.089Z,8.97
2022-11-01T00:56:27.174Z,9.93
2022-11-01T00:58:55.323Z,8.20
2022-11-01T01:01:23.423Z,8.50
2022-11-01T01:03:53.000Z,9.10
2022-11-01T01:06:21.067Z,8.03
2022-11-01T01:08:49.089Z,8.20
2022-11-01T01:11:19.135Z,8.87
2022-11-01T01:13:47.215Z,8.90
2022-11-01T01:16:15.264Z,9.60
2022-11-01T01:18:43.272Z,7.77
2022-11-01T01:21:11.503Z,8.63
2022-11-01T01:23:39.543Z,8.07
2022-11-01T01:26:08.859Z,7.77
2022-11-01T01:28:41.968Z,8.73
2022-11-01T01:31:14.072Z,8.53
2022-11-01T01:33:42.440Z,9.07
2022-11-01T01:36:10.740Z,8.03
2022-11-01T01:38:38.950Z,8.07
2022-11-01T01:41:25.292Z,7.53
2022-11-01T01:43:54.764Z,8.20
2022-11-01T01:46:22.876Z,7.97
2022-11-01T01:48:56.702Z,8.23
2022-11-01T01:51:27.649Z,7.10
2022-11-01T01:53:58.949Z,7.60
2022-11-01T01:56:32.349Z,7.27
2022-11-01T01:59:06.459Z,8.10
2022-11-01T02:01:36.985Z,8.03
2022-11-01T02:04:08.543Z,7.90
2022-11-01T02:06:37.730Z,8.03
2022-11-01T02:09:08.322Z,7.40
2022-11-01T02:11:36.641Z,7.77
2022-11-01T02:14:06.337Z,8.30
2022-11-01T02:16:46.098Z,8.33
2022-11-01T02:20:01.464Z,8.60
2022-11-01T02:22:50.385Z,7.53
2022-11-01T02:25:50.597Z,8.47
2022-11-01T02:28:40.155Z,7.73
2022-11-01T02:31:26.746Z,7.87
2022-11-01T02:33:59.141Z,7.97
2022-11-01T02:36:34.088Z,8.10
2022-11-01T02:39:09.472Z,7.47
2022-11-01T02:41:45.705Z,6.57
2022-11-01T02:44:18.451Z,6.97
2022-11-01T02:47:05.313Z,6.33
2022-11-01T02:49:39.449Z,6.67
2022-11-01T02:52:11.421Z,6.30
2022-11-01T02:54:41.147Z,6.37
2022-11-01T02:57:30.126Z,6.53
2022-11-01T03:00:04.527Z,6.77
2022-11-01T03:02:43.280Z,7.00
2022-11-01T03:05:18.764Z,6.60
2022-11-01T03:07:52.235Z,6.27
2022-11-01T03:10:22.735Z,6.43
2022-11-01T03:13:00.144Z,6.73
2022-11-01T03:15:33.258Z,6.30
2022-11-01T03:18:05.903Z,6.47
2022-11-01T03:20:48.512Z,5.63
2022-11-01T03:23:20.982Z,6.70
2022-11-01T03:25:53.578Z,6.97
2022-11-01T03:28:25.059Z,5.90
2022-11-01T03:30:57.993Z,6.53
2022-11-01T03:33:28.680Z,5.80
2022-11-01T03:36:04.749Z,6.70
2022-11-01T03:38:38.633Z,6.20
2022-11-01T03:41:11.444Z,5.50
2022-11-01T03:43:40.000Z,6.40
2022-11-01T03:46:09.196Z,6.40
2022-11-01T03:48:40.630Z,7.00
2022-11-01T03:51:10.179Z,7.27
2022-11-01T03:53:38.290Z,6.73
2022-11-01T03:56:06.702Z,6.20
2022-11-01T03:58:44.120Z,6.73
2022-11-01T04:01:13.888Z,6.23
2022-11-01T04:03:42.476Z,6.83
2022-11-01T04:06:12.316Z,6.43
2022-11-01T04:08:40.371Z,7.03
2022-11-01T04:11:08.626Z,6.40
2022-11-01T04:13:36.643Z,6.80
2022-11-01T04:16:22.061Z,6.83
2022-11-01T04:19:09.675Z,6.33
2022-11-01T04:21:39.802Z,6.30
2022-11-01T04:24:08.574Z,6.53
2022-11-01T04:26:36.928Z,5.97
2022-11-01T04:29:05.094Z,5.93
2022-11-01T04:31:35.190Z,5.57
2022-11-01T04:34:06.605Z,6.47
2022-11-01T04:36:34.931Z,5.83
2022-11-01T04:39:04.733Z,6.47
2022-11-01T04:41:33.305Z,5.93
2022-11-01T04:44:01.400Z,6.53
2022-11-01T04:46:31.851Z,6.53
2022-11-01T04:48:59.909Z,6.70
2022-11-01T04:51:27.996Z,7.43
2022-11-01T04:53:56.021Z,6.07
2022-11-01T04:56:25.495Z,6.40
2022-11-01T04:58:53.602Z,6.73
2022-11-01T05:01:21.738Z,6.67
2022-11-01T05:03:50.464Z,5.80
2022-11-01T05:06:18.641Z,5.47
2022-11-01T05:08:46.646Z,5.43
2022-11-01T05:11:14.766Z,6.10
2022-11-01T05:13:44.143Z,6.10
2022-11-01T05:16:19.387Z,7.07
2022-11-01T05:18:48.662Z,5.90
2022-11-01T05:21:16.792Z,6.67
2022-11-01T05:23:44.822Z,6.77
2022-11-01T05:26:12.820Z,7.57
2022-11-01T05:28:43.516Z,7.50
2022-11-01T05:31:12.147Z,8.33
2022-11-01T05:33:40.499Z,6.90
2022-11-01T05:36:09.392Z,7.60
2022-11-01T05:38:37.453Z,7.23
2022-11-01T05:41:06.087Z,7.23
2022-11-01T05:43:34.254Z,7.03
2022-11-01T05:46:06.518Z,7.33
2022-11-01T05:48:34.766Z,7.10
2022-11-01T05:51:02.819Z,7.27
2022-11-01T05:53:30.958Z,6.60
2022-11-01T05:55:59.801Z,7.37
2022-11-01T05:58:30.664Z,7.77
2022-11-01T06:00:59.840Z,6.73
2022-11-01T06:03:29.641Z,6.53
2022-11-01T06:05:57.801Z,7.80
2022-11-01T06:08:26.262Z,7.70
2022-11-01T06:10:54.646Z,7.17
2022-11-01T06:13:22.816Z,7.53
2022-11-01T06:15:51.550Z,7.07
2022-11-01T06:18:20.584Z,7.43
2022-11-01T06:20:50.244Z,6.47
2022-11-01T06:23:18.431Z,6.37
2022-11-01T06:25:46.662Z,6.50
2022-11-01T06:28:14.677Z,7.07
2022-11-01T06:30:44.140Z,7.27
2022-11-01T06:33:12.259Z,8.03
2022-11-01T06:52:59.632Z,8.20
2022-11-01T06:55:28.919Z,9.00
2022-11-01T06:57:58.648Z,8.30
2022-11-01T07:00:30.045Z,7.97
2022-11-01T07:03:02.657Z,8.90
2022-11-01T07:05:35.960Z,9.60
2022-11-01T07:08:08.835Z,6.97
2022-11-01T07:10:38.528Z,7.00
2022-11-01T07:13:08.939Z,6.97
2022-11-01T07:15:37.119Z,7.20
2022-11-01T07:18:08.397Z,7.10
2022-11-01T07:20:42.056Z,6.60
2022-11-01T07:23:14.275Z,6.27
2022-11-01T07:25:43.560Z,7.37
2022-11-01T07:28:12.565Z,7.07
2022-11-01T07:30:41.029Z,6.70
2022-11-01T07:33:10.386Z,7.07
2022-11-01T07:35:39.463Z,6.80
2022-11-01T07:38:16.295Z,6.23
2022-11-01T07:40:49.684Z,6.10
2022-11-01T07:43:19.344Z,5.20
2022-11-01T07:45:48.127Z,5.43
2022-11-01T07:48:18.132Z,5.53
2022-11-01T07:50:47.147Z,5.10
2022-11-01T07:53:18.282Z,5.37
2022-11-01T07:55:47.477Z,5.50
2022-11-01T07:58:16.858Z,5.03
2022-11-01T08:00:45.874Z,5.57
2022-11-01T08:03:15.529Z,5.47
2022-11-01T08:05:44.875Z,5.50
2022-11-01T08:08:13.343Z,5.65
2022-11-01T08:10:44.183Z,5.30
2022-11-01T08:13:18.110Z,5.03
2022-11-01T08:15:47.119Z,5.43
2022-11-01T08:18:15.220Z,5.97
2022-11-01T08:20:43.711Z,5.13
2022-11-01T08:23:12.884Z,6.78
2022-11-01T08:25:42.769Z,5.95
2022-11-01T08:28:15.460Z,7.95
2022-11-01T08:30:45.875Z,6.03
2022-11-01T08:33:13.995Z,6.43
2022-11-01T08:35:47.342Z,7.03
2022-11-01T08:38:18.016Z,6.05
2022-11-01T08:40:49.306Z,6.80
2022-11-01T08:43:17.864Z,8.00
2022-11-01T08:45:45.977Z,8.63
2022-11-01T08:48:14.519Z,7.82
2022-11-01T08:50:44.199Z,10.05
2022-11-01T08:53:14.121Z,7.60
2022-11-01T08:55:42.874Z,5.80
2022-11-01T08:58:12.968Z,6.95
2022-11-01T09:00:41.024Z,6.15
2022-11-01T09:03:09.033Z,6.03
2022-11-01T09:05:37.515Z,6.22
2022-11-01T09:08:06.546Z,5.55
2022-11-01T09:10:35.145Z,5.50
2022-11-01T09:13:03.537Z,5.97
2022-11-01T09:15:35.212Z,5.82
2022-11-01T09:18:07.374Z,6.80
2022-11-01T09:20:35.687Z,5.70
2022-11-01T09:23:04.270Z,5.57
2022-11-01T09:25:33.083Z,5.60
2022-11-01T09:28:01.274Z,5.63
2022-11-01T09:30:30.451Z,5.28
2022-11-01T09:33:00.349Z,5.60
2022-11-01T09:35:29.988Z,4.95
2022-11-01T09:38:02.014Z,5.32
2022-11-01T09:40:39.240Z,5.15
2022-11-01T09:43:10.678Z,5.63
2022-11-01T09:45:40.356Z,5.78
2022-11-01T09:48:14.913Z,5.47
2022-11-01T09:50:45.132Z,5.32
2022-11-01T09:53:19.760Z,6.20
2022-11-01T09:55:59.604Z,5.38
2022-11-01T09:58:38.735Z,5.88
2022-11-01T10:01:20.729Z,5.43
2022-11-01T10:04:10.248Z,6.57
2022-11-01T10:06:43.950Z,6.57
2022-11-01T10:09:29.820Z,6.80
2022-11-01T10:12:10.302Z,7.30
2022-11-01T10:15:01.491Z,6.68
2022-11-01T10:17:47.071Z,5.90
2022-11-01T10:20:22.999Z,7.03
2022-11-01T10:22:51.827Z,6.28
2022-11-01T10:25:23.564Z,6.50
2022-11-01T10:28:00.900Z,6.82
2022-11-01T10:30:34.237Z,6.15
2022-11-01T10:33:13.641Z,6.13
2022-11-01T10:35:46.652Z,6.53
2022-11-01T10:38:28.092Z,6.07
2022-11-01T10:41:21.630Z,5.03
2022-11-01T10:43:54.369Z,4.72
2022-11-01T10:46:26.803Z,5.03
2022-11-01T10:48:58.990Z,4.97
2022-11-01T10:51:32.987Z,6.00
2022-11-01T10:54:04.990Z,4.55
2022-11-01T11:16:56.162Z,5.60
2022-11-01T11:19:33.556Z,6.03
2022-11-01T11:22:06.785Z,7.68
2022-11-01T11:24:36.598Z,6.70
2022-11-01T11:27:13.031Z,4.90
2022-11-01T11:29:48.706Z,4.60
2022-11-01T11:32:21.871Z,5.13
2022-11-01T11:34:56.698Z,3.90
2022-11-01T11:37:26.340Z,3.88
2022-11-01T11:40:19.552Z,3.80
2022-11-01T11:42:49.492Z,3.83
2022-11-01T11:45:21.394Z,4.03
2022-11-01T11:47:52.019Z,3.90
2022-11-01T11:50:32.647Z,4.07
2022-11-01T11:53:06.490Z,4.15
2022-11-01T11:55:42.052Z,3.58
2022-11-01T11:58:24.795Z,3.88
2022-11-01T12:00:59.356Z,3.88
2022-11-01T12:03:29.695Z,3.80
2022-11-01T12:06:01.535Z,3.72
2022-11-01T12:08:38.387Z,4.25
2022-11-01T12:11:07.970Z,9.05
2022-11-01T12:13:41.578Z,13.85
2022-11-01T12:16:21.699Z,4.72
2022-11-01T12:18:54.103Z,5.03
2022-11-01T12:21:28.651Z,4.70
2022-11-01T12:24:04.775Z,3.95
2022-11-01T12:26:36.250Z,3.47
2022-11-01T12:29:19.284Z,3.72
2022-11-01T12:31:51.280Z,4.18
2022-11-01T12:34:27.040Z,4.03
2022-11-01T12:36:58.840Z,4.28
2022-11-01T12:39:41.761Z,5.30
2022-11-01T12:42:12.826Z,4.95
2022-11-01T12:44:44.193Z,5.28
2022-11-01T12:47:20.897Z,4.78
2022-11-01T12:49:56.326Z,4.40
2022-11-01T12:52:33.667Z,4.07
2022-11-01T12:55:08.309Z,5.68
2022-11-01T12:57:37.069Z,5.07
2022-11-01T13:00:06.768Z,5.07
2022-11-01T13:03:00.392Z,4.38
2022-11-01T13:05:40.404Z,3.72
2022-11-01T13:08:18.739Z,4.78
2022-11-01T13:10:49.801Z,4.63
2022-11-01T13:13:25.064Z,4.55
2022-11-01T13:16:04.712Z,3.97
2022-11-01T13:18:45.674Z,4.13
2022-11-01T13:21:34.631Z,4.43
2022-11-01T13:24:13.828Z,3.70
2022-11-01T13:26:46.780Z,4.03
2022-11-01T13:29:20.428Z,4.18
2022-11-01T13:31:59.192Z,5.05
2022-11-01T13:34:40.791Z,4.32
2022-11-01T13:37:20.216Z,4.50
2022-11-01T13:40:04.008Z,4.90
2022-11-01T13:42:38.028Z,4.38
2022-11-01T13:45:29.318Z,4.28
2022-11-01T13:48:07.761Z,5.18
2022-11-01T13:51:07.894Z,4.40
2022-11-01T13:53:43.114Z,4.95
2022-11-01T13:56:19.103Z,5.13
2022-11-01T13:58:47.566Z,4.68
2022-11-01T14:01:32.812Z,5.72
2022-11-01T14:04:39.046Z,5.25
2022-11-01T14:07:15.710Z,5.47
2022-11-01T14:09:47.288Z,5.90
2022-11-01T14:12:34.764Z,5.35
2022-11-01T14:15:27.020Z,6.00
2022-11-01T14:18:07.870Z,5.32
2022-11-01T14:20:47.521Z,5.95
2022-11-01T14:23:54.356Z,6.20
2022-11-01T14:27:02.397Z,5.80
2022-11-01T14:29:31.414Z,6.15
2022-11-01T14:32:00.489Z,6.35
2022-11-01T14:34:36.221Z,7.90
2022-11-01T14:37:15.088Z,8.45
2022-11-01T14:39:49.704Z,8.23
2022-11-01T14:42:26.509Z,7.47
2022-11-01T14:44:58.704Z,7.68
2022-11-01T14:47:36.597Z,7.50
2022-11-01T14:50:15.481Z,8.00
2022-11-01T14:52:48.451Z,7.68
2022-11-01T14:55:21.724Z,8.27
2022-11-01T14:57:51.902Z,7.70
2022-11-01T15:00:31.767Z,6.47
2022-11-01T15:03:02.647Z,7.40
2022-11-01T15:05:31.268Z,7.35
2022-11-01T15:08:00.699Z,7.53
2022-11-01T15:10:29.825Z,7.00
2022-11-01T15:13:02.448Z,8.05
2022-11-01T15:15:34.446Z,7.90
2022-11-01T15:18:06.344Z,6.72
2022-11-01T15:20:39.917Z,6.68
2022-11-01T15:23:12.027Z,7.45
2022-11-01T15:25:40.948Z,7.72
2022-11-01T15:28:21.202Z,7.03
2022-11-01T15:30:56.291Z,8.00
2022-11-01T15:33:25.982Z,8.13
2022-11-01T15:35:55.974Z,9.00
2022-11-01T15:38:24.295Z,9.20
2022-11-01T15:40:53.321Z,10.55
2022-11-01T15:43:26.870Z,20.60
2022-11-01T15:45:57.738Z,18.40
2022-11-01T15:48:30.995Z,19.08
2022-11-01T15:51:02.906Z,24.23
2022-11-01T15:53:34.820Z,13.98
2022-11-01T15:56:08.388Z,14.05
2022-11-01T15:58:41.886Z,12.25
2022-11-01T16:01:15.639Z,10.52
2022-11-01T16:03:48.451Z,11.10
2022-11-01T16:06:21.250Z,11.93
2022-11-01T16:08:56.160Z,11.43
2022-11-01T16:11:29.126Z,13.43
2022-11-01T16:14:01.806Z,12.70
2022-11-01T16:16:31.670Z,12.05
2022-11-01T16:19:00.253Z,9.48
2022-11-01T16:21:30.868Z,13.38
2022-11-01T16:24:06.805Z,11.35
2022-11-01T16:26:53.151Z,11.23
2022-11-01T16:29:39.146Z,12.13
2022-11-01T16:32:10.228Z,11.02
2022-11-01T16:34:38.509Z,11.23
2022-11-01T16:37:20.127Z,10.25
2022-11-01T16:39:48.438Z,10.23
2022-11-01T16:42:17.399Z,9.40
2022-11-01T16:44:47.958Z,11.52
2022-11-01T16:47:18.063Z,11.23
2022-11-01T16:49:51.256Z,11.45
2022-11-01T16:52:19.884Z,11.65
2022-11-01T16:54:50.956Z,11.75
2022-11-01T16:57:25.134Z,11.82
2022-11-01T16:59:56.077Z,11.05
2022-11-01T17:02:28.093Z,11.13
2022-11-01T17:05:04.215Z,11.40
2022-11-01T17:07:32.384Z,12.50
2022-11-01T17:10:00.546Z,12.57
2022-11-01T17:12:28.665Z,14.50
2022-11-01T17:14:58.272Z,14.27
2022-11-01T17:17:28.104Z,13.27
2022-11-01T17:20:04.194Z,12.75
2022-11-01T17:22:36.099Z,13.07
2022-11-01T17:25:05.466Z,15.15
2022-11-01T17:27:33.818Z,13.93
2022-11-01T17:30:03.386Z,12.50
2022-11-01T17:32:31.441Z,13.82
2022-11-01T17:34:59.638Z,14.85
2022-11-01T17:37:31.539Z,14.93
2022-11-01T17:40:00.273Z,15.55
2022-11-01T17:42:29.464Z,14.57
2022-11-01T17:44:57.654Z,17.50
2022-11-01T17:47:27.468Z,15.98
2022-11-01T17:49:55.539Z,17.08
2022-11-01T17:52:23.642Z,17.13
2022-11-01T17:54:51.895Z,17.27
2022-11-01T17:57:20.049Z,17.67
2022-11-01T17:59:48.624Z,16.80
2022-11-01T18:02:16.829Z,16.50
2022-11-01T18:04:46.467Z,15.88
2022-11-01T18:07:15.761Z,14.50
2022-11-01T18:09:43.920Z,11.88
2022-11-01T18:12:18.352Z,13.75
2022-11-01T18:14:56.601Z,15.05
2022-11-01T18:17:38.804Z,15.85
2022-11-01T18:20:19.484Z,14.63
2022-11-01T18:22:53.358Z,12.82
2022-11-01T18:25:29.253Z,13.00
2022-11-01T18:28:01.103Z,10.27
2022-11-01T18:30:29.492Z,14.40
2022-11-01T18:33:03.877Z,12.75
2022-11-01T18:35:39.431Z,14.23
2022-11-01T18:38:21.889Z,12.70
2022-11-01T18:40:57.463Z,13.07
2022-11-01T18:43:27.002Z,11.68
2022-11-01T18:46:23.448Z,12.07
2022-11-01T18:48:44.636Z,12.00
2022-11-01T18:51:20.740Z,12.27
2022-11-01T18:53:54.409Z,12.68
2022-11-01T18:56:25.508Z,12.57
2022-11-01T18:58:55.583Z,12.55
2022-11-01T19:01:32.856Z,13.98
2022-11-01T19:04:07.497Z,13.77
2022-11-01T19:06:37.175Z,12.80
2022-11-01T19:09:18.092Z,12.32
2022-11-01T19:11:46.596Z,12.57
2022-11-01T19:14:23.574Z,12.10
2022-11-01T19:16:51.761Z,12.07
2022-11-01T19:19:21.682Z,11.27
2022-11-01T19:21:51.215Z,11.57
2022-11-01T19:24:31.586Z,11.60
2022-11-01T19:27:00.328Z,14.45
2022-11-01T19:29:32.583Z,11.57
2022-11-01T19:32:03.940Z,11.75
2022-11-01T19:34:36.830Z,10.98
2022-11-01T19:37:20.019Z,11.02
2022-11-01T19:39:49.286Z,9.82
2022-11-01T19:42:26.828Z,9.90
2022-11-01T19:44:59.354Z,10.63
2022-11-01T19:47:41.185Z,10.77
2022-11-01T19:50:22.085Z,11.17
2022-11-01T19:52:54.177Z,11.95
2022-11-01T19:55:36.243Z,12.65
2022-11-01T19:58:05.088Z,11.37
2022-11-01T20:00:34.726Z,11.33
2022-11-01T20:03:03.306Z,11.77
2022-11-01T20:05:34.887Z,11.77
2022-11-01T20:08:16.071Z,11.63
2022-11-01T20:10:44.964Z,11.13
2022-11-01T20:13:13.603Z,11.27
2022-11-01T20:15:43.412Z,9.90
2022-11-01T20:18:11.794Z,8.67
2022-11-01T20:20:43.864Z,9.53
2022-11-01T20:23:26.447Z,10.47
2022-11-01T20:25:55.267Z,9.60
2022-11-01T20:28:23.348Z,9.70
2022-11-01T20:30:51.423Z,9.90
2022-11-01T20:33:19.520Z,8.73
2022-11-01T20:35:47.626Z,10.27
2022-11-01T20:38:17.289Z,10.67
2022-11-01T20:40:46.105Z,10.03
2022-11-01T20:43:14.226Z,9.67
2022-11-01T20:45:42.609Z,9.33
2022-11-01T20:48:10.805Z,11.20
2022-11-01T20:50:38.866Z,10.53
2022-11-01T20:53:07.226Z,10.30
2022-11-01T20:55:36.922Z,12.70
2022-11-01T20:58:05.330Z,10.03
2022-11-01T21:00:33.743Z,11.67
2022-11-01T21:03:05.584Z,11.33
2022-11-01T21:05:36.808Z,12.40
2022-11-01T21:08:16.425Z,12.77
2022-11-01T21:10:45.956Z,13.40
2022-11-01T21:13:24.021Z,13.67
2022-11-01T21:15:52.960Z,13.77
2022-11-01T21:18:35.273Z,13.80
2022-11-01T21:21:27.392Z,16.33
2022-11-01T21:23:55.575Z,16.57
2022-11-01T21:26:27.311Z,19.13
2022-11-01T21:28:57.065Z,28.70
2022-11-01T21:31:28.141Z,29.30
2022-11-01T21:33:58.040Z,32.70
2022-11-01T21:36:37.433Z,30.73
2022-11-01T21:39:12.669Z,27.03
2022-11-01T21:41:45.322Z,21.60
2022-11-01T21:44:21.809Z,24.47
2022-11-01T21:46:51.972Z,30.07
2022-11-01T21:49:31.349Z,31.50
2022-11-01T21:52:01.535Z,35.07
2022-11-01T21:54:31.838Z,38.97
2022-11-01T21:57:01.648Z,36.63
2022-11-01T21:59:30.112Z,40.27
2022-11-01T22:02:01.359Z,41.97
2022-11-01T22:04:31.060Z,43.87
2022-11-01T22:06:59.467Z,44.40
2022-11-01T22:09:28.024Z,40.87
2022-11-01T22:11:56.712Z,40.93
2022-11-01T22:14:26.256Z,29.90
2022-11-01T22:16:54.426Z,31.87
2022-11-01T22:19:22.538Z,36.37
2022-11-01T22:21:50.634Z,37.87
2022-11-01T22:24:18.760Z,35.03
2022-11-01T22:26:46.879Z,31.93
2022-11-01T22:29:14.900Z,33.80
2022-11-01T22:31:44.487Z,36.90
2022-11-01T22:34:12.550Z,35.03
2022-11-01T22:36:42.702Z,36.47
2022-11-01T22:39:18.450Z,35.00
2022-11-01T22:41:46.527Z,35.93
2022-11-01T22:44:17.503Z,35.10
2022-11-01T22:46:55.088Z,31.03
2022-11-01T22:49:27.831Z,32.90
2022-11-01T22:51:58.719Z,34.17
2022-11-01T22:54:38.665Z,32.43
2022-11-01T22:57:15.943Z,29.87
2022-11-01T22:59:47.194Z,27.33
2022-11-01T23:02:28.661Z,20.00
2022-11-01T23:05:03.894Z,21.13
2022-11-01T23:07:35.345Z,20.23
2022-11-01T23:10:06.370Z,20.53
2022-11-01T23:12:54.738Z,21.53
2022-11-01T23:15:29.212Z,21.20
2022-11-01T23:18:03.301Z,25.83
2022-11-01T23:20:31.494Z,30.30
2022-11-01T23:23:01.589Z,25.73
2022-11-01T23:25:30.376Z,32.43
2022-11-01T23:27:58.406Z,25.60
2022-11-01T23:30:26.584Z,17.90
2022-11-01T23:32:54.621Z,17.63
2022-11-01T23:35:24.098Z,15.77
2022-11-01T23:37:53.910Z,16.10
2022-11-01T23:40:23.201Z,14.63
2022-11-01T23:42:51.732Z,17.57
2022-11-01T23:45:29.816Z,16.77
2022-11-01T23:47:58.770Z,16.47
2022-11-01T23:50:32.183Z,15.27
2022-11-01T23:53:03.194Z,14.70
2022-11-01T23:55:34.751Z,13.90
2022-11-01T23:58:05.184Z,14.23
